Time,TemperatureF,DewpointF,PressureIn,WindDirection,WindDirectionDegrees,WindSpeedMPH,WindSpeedGustMPH,Humidity,HourlyPrecipIn,Conditions,Clouds,dailyrainin,SolarRadiationWatts/m^2,SoftwareType,DateUTC
2013-05-15 00:00:00,73.0,66.1,30.05,WSW,256,1.0,3.0,79,0.00,,,0.00,0,Wunderground v.1.15,2013-05-15 05:00:00,
2013-05-15 00:10:00,73.0,65.7,30.05,NW,319,2.0,2.0,78,0.00,,,0.00,0,Wunderground v.1.15,2013-05-15 05:10:00,
2013-05-15 00:15:00,72.9,65.6,30.05,SSW,207,2.0,2.0,78,0.00,,,0.00,0,Wunderground v.1.15,2013-05-15 05:15:00,
2013-05-15 00:20:00,72.8,65.5,30.05,East,90,2.0,2.0,78,0.00,,,0.00,0,Wunderground v.1.15,2013-05-15 05:20:00,
2013-05-15 00:30:00,72.6,65.3,30.05,NNE,32,2.0,4.0,78,0.00,,,0.00,0,Wunderground v.1.15,2013-05-15 05:30:00,
2013-05-15 00:35:00,72.5,65.6,30.06,West,263,2.0,4.0,79,0.00,,,0.00,0,Wunderground v.1.15,2013-05-15 05:35:00,
2013-05-15 00:40:00,72.5,65.6,30.06,North,5,2.0,2.0,79,0.00,,,0.00,0,Wunderground v.1.15,2013-05-15 05:40:00,
2013-05-15 00:45:00,72.4,65.5,30.06,ENE,71,1.0,2.0,79,0.00,,,0.00,0,Wunderground v.1.15,2013-05-15 05:45:00,
2013-05-15 00:50:00,72.4,65.5,30.06,NE,51,1.0,2.0,79,0.00,,,0.00,0,Wunderground v.1.15,2013-05-15 05:50:00,
2013-05-15 01:00:00,72.3,65.4,30.06,South,190,2.0,2.0,79,0.00,,,0.00,0,Wunderground v.1.15,2013-05-15 06:00:00,
2013-05-15 01:05:00,72.2,65.3,30.06,ESE,111,2.0,2.0,79,0.00,,,0.00,0,Wunderground v.1.15,2013-05-15 06:05:00,
2013-05-15 01:10:00,72.1,65.2,30.05,East,96,2.0,3.0,79,0.00,,,0.00,0,Wunderground v.1.15,2013-05-15 06:10:00,
2013-05-15 01:15:00,72.0,65.1,30.05,SE,143,2.0,3.0,79,0.00,,,0.00,0,Wunderground v.1.15,2013-05-15 06:15:00,
2013-05-15 01:20:00,71.9,65.4,30.05,NNE,29,2.0,3.0,80,0.00,,,0.00,0,Wunderground v.1.15,2013-05-15 06:20:00,
2013-05-15 01:30:00,71.8,65.3,30.05,SSW,211,2.0,5.0,80,0.00,,,0.00,0,Wunderground v.1.15,2013-05-15 06:30:00,
2013-05-15 01:35:00,71.8,65.3,30.05,NNW,337,2.0,5.0,80,0.00,,,0.00,0,Wunderground v.1.15,2013-05-15 06:35:00,
2013-05-15 01:40:00,71.7,65.2,30.04,East,99,2.0,2.0,80,0.00,,,0.00,0,Wunderground v.1.15,2013-05-15 06:40:00,
2013-05-15 01:45:00,71.6,65.5,30.04,SW,223,2.0,2.0,81,0.00,,,0.00,0,Wunderground v.1.15,2013-05-15 06:45:00,
2013-05-15 01:50:00,71.5,65.4,30.04,WSW,241,1.0,1.0,81,0.00,,,0.00,0,Wunderground v.1.15,2013-05-15 06:50:00,
2013-05-15 01:55:00,71.3,65.5,30.04,SSE,166,1.0,1.0,82,0.00,,,0.00,0,Wunderground v.1.15,2013-05-15 06:55:00,
2013-05-15 02:05:00,71.1,65.3,30.03,NE,53,1.0,2.0,82,0.00,,,0.00,0,Wunderground v.1.15,2013-05-15 07:05:00,
2013-05-15 02:10:00,71.1,65.3,30.03,WSW,258,1.0,3.0,82,0.00,,,0.00,0,Wunderground v.1.15,2013-05-15 07:10:00,
2013-05-15 02:15:00,71.0,65.6,30.03,West,272,1.0,3.0,83,0.00,,,0.00,0,Wunderground v.1.15,2013-05-15 07:15:00,
2013-05-15 02:20:00,71.0,65.6,30.03,WSW,252,1.0,6.0,83,0.00,,,0.00,0,Wunderground v.1.15,2013-05-15 07:20:00,
2013-05-15 02:25:00,71.0,65.6,30.02,SW,225,1.0,6.0,83,0.00,,,0.00,0,Wunderground v.1.15,2013-05-15 07:25:00,
2013-05-15 02:30:00,70.9,65.5,30.02,South,180,1.0,2.0,83,0.00,,,0.00,0,Wunderground v.1.15,2013-05-15 07:30:00,
2013-05-15 02:35:00,71.0,65.6,30.02,West,261,1.0,2.0,83,0.00,,,0.00,0,Wunderground v.1.15,2013-05-15 07:35:00,
2013-05-15 02:45:00,70.9,65.8,30.01,SE,127,1.0,1.0,84,0.00,,,0.00,0,Wunderground v.1.15,2013-05-15 07:45:00,
2013-05-15 02:50:00,70.8,66.1,30.01,NNW,346,1.0,1.0,85,0.00,,,0.00,0,Wunderground v.1.15,2013-05-15 07:50:00,
2013-05-15 02:55:00,70.6,65.9,30.01,WSW,257,1.0,3.0,85,0.00,,,0.00,0,Wunderground v.1.15,2013-05-15 07:55:00,
2013-05-15 03:00:00,70.5,66.1,30.02,SSE,158,1.0,1.0,86,0.00,,,0.00,0,Wunderground v.1.15,2013-05-15 08:00:00,
2013-05-15 03:10:00,70.2,66.1,30.02,WSW,247,1.0,1.0,87,0.00,,,0.00,0,Wunderground v.1.15,2013-05-15 08:10:00,
2013-05-15 03:15:00,69.9,66.5,30.02,West,259,1.0,1.0,89,0.00,,,0.00,0,Wunderground v.1.15,2013-05-15 08:15:00,
2013-05-15 03:20:00,69.6,66.5,30.01,South,178,1.0,1.0,90,0.00,,,0.01,0,Wunderground v.1.15,2013-05-15 08:20:00,
2013-05-15 03:25:00,69.2,66.5,30.02,WSW,249,1.0,3.0,91,0.16,,,0.03,0,Wunderground v.1.15,2013-05-15 08:25:00,
2013-05-15 03:30:00,69.0,66.6,30.02,West,260,1.0,1.0,92,0.16,,,0.04,0,Wunderground v.1.15,2013-05-15 08:30:00,
2013-05-15 03:35:00,68.7,66.6,30.02,WSW,238,1.0,3.0,93,0.96,,,0.10,0,Wunderground v.1.15,2013-05-15 08:35:00,
2013-05-15 03:40:00,68.5,66.7,30.02,WSW,238,1.0,3.0,94,0.52,,,0.14,0,Wunderground v.1.15,2013-05-15 08:40:00,
2013-05-15 03:50:00,68.3,66.8,30.02,West,278,1.0,1.0,95,0.21,,,0.17,0,Wunderground v.1.15,2013-05-15 08:50:00,
2013-05-15 03:55:00,68.2,66.7,30.02,West,261,1.0,2.0,95,0.13,,,0.19,0,Wunderground v.1.15,2013-05-15 08:55:00,
2013-05-15 04:00:00,68.2,67.0,30.02,WSW,257,1.0,1.0,96,0.14,,,0.20,0,Wunderground v.1.15,2013-05-15 09:00:00,
2013-05-15 04:10:00,68.1,66.9,30.01,NNE,31,0.0,0.0,96,0.06,,,0.21,0,Wunderground v.1.15,2013-05-15 09:10:00,
2013-05-15 04:15:00,68.0,66.5,30.01,West,259,1.0,3.0,95,0.16,,,0.22,0,Wunderground v.1.15,2013-05-15 09:15:00,
2013-05-15 04:20:00,67.8,66.0,30.01,South,169,1.0,1.0,94,0.11,,,0.23,0,Wunderground v.1.15,2013-05-15 09:20:00,
2013-05-15 04:30:00,67.0,65.2,30.01,West,274,2.0,3.0,94,0.11,,,0.25,0,Wunderground v.1.15,2013-05-15 09:30:00,
2013-05-15 04:35:00,66.3,64.2,30.01,NE,49,3.0,3.0,93,0.06,,,0.25,0,Wunderground v.1.15,2013-05-15 09:35:00,
2013-05-15 04:45:00,65.6,63.8,29.99,East,98,1.0,2.0,94,0.05,,,0.26,0,Wunderground v.1.15,2013-05-15 09:45:00,
2013-05-15 04:50:00,65.4,63.6,29.98,ESE,110,0.0,0.0,94,0.06,,,0.27,0,Wunderground v.1.15,2013-05-15 09:50:00,
2013-05-15 05:00:00,65.0,63.5,29.98,East,88,0.0,0.0,95,0.05,,,0.27,0,Wunderground v.1.15,2013-05-15 10:00:00,
2013-05-15 05:05:00,64.9,63.4,29.98,East,88,0.0,0.0,95,0.05,,,0.28,0,Wunderground v.1.15,2013-05-15 10:05:00,
2013-05-15 05:10:00,64.8,63.3,29.99,East,88,0.0,0.0,95,0.05,,,0.28,0,Wunderground v.1.15,2013-05-15 10:10:00,
2013-05-15 05:20:00,64.6,63.1,30.00,East,87,0.0,0.0,95,0.00,,,0.28,0,Wunderground v.1.15,2013-05-15 10:20:00,
2013-05-15 05:30:00,64.5,63.3,30.00,East,87,0.0,0.0,96,0.00,,,0.28,0,Wunderground v.1.15,2013-05-15 10:30:00,
2013-05-15 05:35:00,64.4,63.2,30.00,East,87,0.0,0.0,96,0.00,,,0.28,0,Wunderground v.1.15,2013-05-15 10:35:00,
2013-05-15 05:40:00,64.5,63.3,29.99,East,87,0.0,0.0,96,0.00,,,0.28,0,Wunderground v.1.15,2013-05-15 10:40:00,
2013-05-15 05:50:00,64.7,63.8,29.99,SSW,206,0.0,0.0,97,0.00,,,0.28,0,Wunderground v.1.15,2013-05-15 10:50:00,
2013-05-15 06:00:00,65.0,64.1,30.00,SW,227,0.0,0.0,97,0.00,,,0.29,0,Wunderground v.1.15,2013-05-15 11:00:00,
2013-05-15 06:10:00,65.6,65.0,29.99,SW,229,1.0,1.0,98,0.20,,,0.32,0,Wunderground v.1.15,2013-05-15 11:10:00,
2013-05-15 06:15:00,65.9,65.3,29.99,ENE,59,2.0,4.0,98,0.40,,,0.34,0,Wunderground v.1.15,2013-05-15 11:15:00,
2013-05-15 06:25:00,66.7,66.1,29.94,East,90,3.0,3.0,98,0.10,,,0.37,0,Wunderground v.1.15,2013-05-15 11:25:00,
2013-05-15 06:30:00,66.7,66.1,29.92,ESE,109,4.0,4.0,98,0.10,,,0.37,0,Wunderground v.1.15,2013-05-15 11:30:00,
2013-05-15 06:35:00,66.8,65.9,29.93,SE,142,4.0,4.0,97,0.05,,,0.37,0,Wunderground v.1.15,2013-05-15 11:35:00,
2013-05-15 06:40:00,66.8,65.6,29.93,East,80,3.0,3.0,96,0.04,,,0.37,0,Wunderground v.1.15,2013-05-15 11:40:00,
2013-05-15 06:50:00,67.2,66.3,29.94,ENE,57,4.0,4.0,97,0.00,,,0.37,5,Wunderground v.1.15,2013-05-15 11:50:00,
2013-05-15 07:00:00,67.6,66.7,29.97,SW,216,3.0,3.0,97,0.00,,,0.37,11,Wunderground v.1.15,2013-05-15 12:00:00,
2013-05-15 07:10:00,67.7,66.8,29.98,SSE,164,2.0,2.0,97,0.00,,,0.37,12,Wunderground v.1.15,2013-05-15 12:10:00,
2013-05-15 07:15:00,67.7,66.8,29.98,WSW,254,2.0,2.0,97,0.00,,,0.37,12,Wunderground v.1.15,2013-05-15 12:15:00,
2013-05-15 07:20:00,67.7,66.8,29.98,SE,125,1.0,1.0,97,0.00,,,0.37,11,Wunderground v.1.15,2013-05-15 12:20:00,
2013-05-15 07:30:00,67.8,66.9,29.98,SSW,197,1.0,3.0,97,0.00,,,0.37,9,Wunderground v.1.15,2013-05-15 12:30:00,
2013-05-15 07:35:00,67.8,66.9,29.98,ESE,105,1.0,3.0,97,0.00,,,0.37,5,Wunderground v.1.15,2013-05-15 12:35:00,
2013-05-15 07:40:00,67.8,66.9,29.99,SE,126,1.0,1.0,97,0.00,,,0.37,7,Wunderground v.1.15,2013-05-15 12:40:00,
2013-05-15 07:45:00,67.8,66.9,29.98,ENE,59,1.0,1.0,97,0.00,,,0.37,9,Wunderground v.1.15,2013-05-15 12:45:00,
2013-05-15 07:55:00,67.8,66.9,29.98,East,94,1.0,2.0,97,0.00,,,0.37,21,Wunderground v.1.15,2013-05-15 12:55:00,
2013-05-15 08:05:00,67.9,67.0,29.99,East,85,1.0,1.0,97,0.00,,,0.37,35,Wunderground v.1.15,2013-05-15 13:05:00,
2013-05-15 08:15:00,68.1,67.2,29.98,SW,219,1.0,1.0,97,0.00,,,0.37,58,Wunderground v.1.15,2013-05-15 13:15:00,
2013-05-15 08:25:00,68.3,67.4,29.99,East,90,1.0,1.0,97,0.00,,,0.37,35,Wunderground v.1.15,2013-05-15 13:25:00,
2013-05-15 08:30:00,68.4,67.5,29.99,East,90,1.0,1.0,97,0.00,,,0.37,47,Wunderground v.1.15,2013-05-15 13:30:00,
2013-05-15 08:35:00,68.4,67.5,29.99,SE,128,1.0,1.0,97,0.00,,,0.37,62,Wunderground v.1.15,2013-05-15 13:35:00,
2013-05-15 08:45:00,68.5,67.6,30.00,SE,139,1.0,1.0,97,0.00,,,0.37,33,Wunderground v.1.15,2013-05-15 13:45:00,
2013-05-15 08:50:00,68.5,67.6,30.00,WSW,242,1.0,1.0,97,0.00,,,0.37,23,Wunderground v.1.15,2013-05-15 13:50:00,
2013-05-15 09:00:00,68.4,67.5,30.00,SW,232,1.0,1.0,97,0.00,,,0.37,35,Wunderground v.1.15,2013-05-15 14:00:00,
2013-05-15 09:05:00,68.5,67.6,30.00,ENE,78,1.0,2.0,97,0.00,,,0.37,81,Wunderground v.1.15,2013-05-15 14:05:00,
2013-05-15 09:10:00,68.6,67.7,29.99,ENE,64,2.0,3.0,97,0.00,,,0.37,141,Wunderground v.1.15,2013-05-15 14:10:00,
2013-05-15 09:15:00,68.8,67.9,29.99,ESE,119,2.0,3.0,97,0.00,,,0.37,237,Wunderground v.1.15,2013-05-15 14:15:00,
2013-05-15 09:20:00,69.1,68.2,29.99,SW,231,2.0,2.0,97,0.00,,,0.37,107,Wunderground v.1.15,2013-05-15 14:20:00,
2013-05-15 09:30:00,69.2,68.0,29.99,WNW,298,2.0,2.0,96,0.00,,,0.37,56,Wunderground v.1.15,2013-05-15 14:30:00,
2013-05-15 09:35:00,69.1,67.9,29.99,East,87,1.0,2.0,96,0.00,,,0.37,56,Wunderground v.1.15,2013-05-15 14:35:00,
2013-05-15 09:40:00,69.0,67.8,29.99,SSW,198,1.0,1.0,96,0.00,,,0.37,76,Wunderground v.1.15,2013-05-15 14:40:00,
2013-05-15 09:45:00,69.1,68.2,29.99,NE,41,1.0,1.0,97,0.00,,,0.37,56,Wunderground v.1.15,2013-05-15 14:45:00,
2013-05-15 09:55:00,69.1,67.9,29.98,ESE,109,1.0,1.0,96,0.00,,,0.37,84,Wunderground v.1.15,2013-05-15 14:55:00,
2013-05-15 10:05:00,69.3,68.1,29.98,ENE,70,1.0,2.0,96,0.00,,,0.37,91,Wunderground v.1.15,2013-05-15 15:05:00,
2013-05-15 10:15:00,69.4,68.2,29.98,East,89,2.0,2.0,96,0.00,,,0.37,98,Wunderground v.1.15,2013-05-15 15:15:00,
2013-05-15 10:20:00,69.4,68.2,29.98,North,9,2.0,3.0,96,0.00,,,0.37,107,Wunderground v.1.15,2013-05-15 15:20:00,
2013-05-15 10:30:00,69.6,68.4,29.98,SSW,192,1.0,1.0,96,0.00,,,0.37,98,Wunderground v.1.15,2013-05-15 15:30:00,
2013-05-15 10:35:00,69.6,68.1,29.97,East,101,2.0,3.0,95,0.00,,,0.37,72,Wunderground v.1.15,2013-05-15 15:35:00,
2013-05-15 10:45:00,69.6,68.4,29.97,ESE,103,2.0,4.0,96,0.00,,,0.37,90,Wunderground v.1.15,2013-05-15 15:45:00,
2013-05-15 10:50:00,69.6,68.4,29.97,North,360,2.0,2.0,96,0.00,,,0.37,111,Wunderground v.1.15,2013-05-15 15:50:00,
2013-05-15 10:55:00,69.6,68.4,29.97,ESE,107,2.0,2.0,96,0.00,,,0.37,107,Wunderground v.1.15,2013-05-15 15:55:00,
2013-05-15 11:10:00,69.9,69.0,29.96,NE,55,1.0,1.0,97,0.00,,,0.37,167,Wunderground v.1.15,2013-05-15 16:10:00,
2013-05-15 11:25:00,70.1,68.9,29.96,ENE,72,1.0,3.0,96,0.00,,,0.37,74,Wunderground v.1.15,2013-05-15 16:25:00,
2013-05-15 11:35:00,70.3,69.1,29.95,SW,232,1.0,2.0,96,0.00,,,0.37,207,Wunderground v.1.15,2013-05-15 16:35:00,
2013-05-15 11:40:00,70.6,69.1,29.96,East,96,1.0,5.0,95,0.00,,,0.37,144,Wunderground v.1.15,2013-05-15 16:40:00,
2013-05-15 11:50:00,70.8,69.3,29.96,East,94,2.0,2.0,95,0.00,,,0.37,90,Wunderground v.1.15,2013-05-15 16:50:00,
2013-05-15 12:00:00,70.8,69.0,29.96,West,273,2.0,5.0,94,0.00,,,0.37,193,Wunderground v.1.15,2013-05-15 17:00:00,
2013-05-15 12:10:00,71.3,69.5,29.95,East,80,1.0,1.0,94,0.00,,,0.37,213,Wunderground v.1.15,2013-05-15 17:10:00,
2013-05-15 12:20:00,72.3,70.2,29.94,North,360,2.0,2.0,93,0.00,,,0.37,459,Wunderground v.1.15,2013-05-15 17:20:00,
2013-05-15 12:30:00,73.5,70.7,29.94,SSE,155,2.0,2.0,91,0.00,,,0.37,554,Wunderground v.1.15,2013-05-15 17:30:00,
2013-05-15 12:35:00,74.2,71.1,29.94,WSW,241,2.0,4.0,90,0.00,,,0.37,471,Wunderground v.1.15,2013-05-15 17:35:00,
2013-05-15 12:45:00,75.0,71.2,29.93,SW,216,3.0,6.0,88,0.00,,,0.37,881,Wunderground v.1.15,2013-05-15 17:45:00,
2013-05-15 12:50:00,75.5,71.7,29.92,WSW,244,2.0,2.0,88,0.00,,,0.37,476,Wunderground v.1.15,2013-05-15 17:50:00,
2013-05-15 12:55:00,76.0,71.2,29.92,SSE,150,2.0,3.0,85,0.00,,,0.37,476,Wunderground v.1.15,2013-05-15 17:55:00,
2013-05-15 13:00:00,76.2,71.0,29.92,SSW,207,3.0,3.0,84,0.00,,,0.37,1176,Wunderground v.1.15,2013-05-15 18:00:00,
2013-05-15 13:05:00,76.7,71.5,29.92,West,278,3.0,3.0,84,0.00,,,0.37,1123,Wunderground v.1.15,2013-05-15 18:05:00,
2013-05-15 13:15:00,76.4,70.9,29.91,West,277,2.0,11.0,83,0.00,,,0.38,371,Wunderground v.1.15,2013-05-15 18:15:00,
2013-05-15 13:20:00,77.0,71.4,29.91,NE,56,3.0,3.0,83,0.00,,,0.38,371,Wunderground v.1.15,2013-05-15 18:20:00,
2013-05-15 13:25:00,77.5,71.6,29.91,SSW,202,2.0,3.0,82,0.00,,,0.38,1243,Wunderground v.1.15,2013-05-15 18:25:00,
2013-05-15 13:30:00,77.9,70.9,29.91,SE,126,2.0,2.0,79,0.00,,,0.38,287,Wunderground v.1.15,2013-05-15 18:30:00,
2013-05-15 13:35:00,77.8,70.8,29.91,East,82,3.0,3.0,79,0.00,,,0.38,378,Wunderground v.1.15,2013-05-15 18:35:00,
2013-05-15 13:40:00,77.5,71.2,29.91,NW,315,4.0,4.0,81,0.00,,,0.38,362,Wunderground v.1.15,2013-05-15 18:40:00,
2013-05-15 13:50:00,77.8,71.1,29.91,ENE,71,2.0,3.0,80,0.00,,,0.38,410,Wunderground v.1.15,2013-05-15 18:50:00,
2013-05-15 14:00:00,79.3,71.1,29.91,WNW,301,3.0,3.0,76,0.00,,,0.38,1072,Wunderground v.1.15,2013-05-15 19:00:00,
2013-05-15 14:05:00,79.9,71.7,29.91,SSE,150,3.0,3.0,76,0.00,,,0.38,323,Wunderground v.1.15,2013-05-15 19:05:00,
2013-05-15 14:20:00,80.9,71.8,29.89,NW,306,3.0,3.0,74,0.00,,,0.38,991,Wunderground v.1.15,2013-05-15 19:20:00,
2013-05-15 14:30:00,81.7,71.0,29.89,SSE,163,3.0,3.0,70,0.00,,,0.38,993,Wunderground v.1.15,2013-05-15 19:30:00,
2013-05-15 14:35:00,81.3,70.6,29.88,NE,44,4.0,4.0,70,0.00,,,0.38,264,Wunderground v.1.15,2013-05-15 19:35:00,
2013-05-15 14:40:00,81.3,69.7,29.88,West,266,4.0,6.0,68,0.00,,,0.38,1051,Wunderground v.1.15,2013-05-15 19:40:00,
2013-05-15 14:45:00,82.0,70.8,29.87,SSW,207,4.0,6.0,69,0.00,,,0.38,272,Wunderground v.1.15,2013-05-15 19:45:00,
2013-05-15 14:50:00,82.5,70.0,29.87,SSE,165,4.0,4.0,66,0.00,,,0.38,914,Wunderground v.1.15,2013-05-15 19:50:00,
2013-05-15 15:05:00,82.9,69.9,29.86,WSW,252,4.0,8.0,65,0.00,,,0.38,287,Wunderground v.1.15,2013-05-15 20:05:00,
2013-05-15 15:10:00,82.5,70.0,29.86,WSW,247,3.0,6.0,66,0.00,,,0.38,325,Wunderground v.1.15,2013-05-15 20:10:00,
2013-05-15 15:20:00,81.7,69.2,29.86,WSW,243,4.0,7.0,66,0.00,,,0.38,294,Wunderground v.1.15,2013-05-15 20:20:00,
2013-05-15 15:25:00,81.7,70.5,29.86,SSW,200,4.0,7.0,69,0.00,,,0.38,301,Wunderground v.1.15,2013-05-15 20:25:00,
2013-05-15 15:30:00,82.2,69.7,29.86,ENE,58,3.0,3.0,66,0.00,,,0.38,900,Wunderground v.1.15,2013-05-15 20:30:00,
2013-05-15 15:40:00,83.2,70.2,29.85,ENE,75,3.0,8.0,65,0.00,,,0.38,283,Wunderground v.1.15,2013-05-15 20:40:00,
2013-05-15 15:45:00,82.9,69.9,29.85,SW,236,3.0,8.0,65,0.00,,,0.38,297,Wunderground v.1.15,2013-05-15 20:45:00,
2013-05-15 15:50:00,82.9,69.9,29.85,SSE,159,3.0,3.0,65,0.00,,,0.38,309,Wunderground v.1.15,2013-05-15 20:50:00,
2013-05-15 15:55:00,83.4,70.4,29.85,ENE,76,2.0,3.0,65,0.00,,,0.38,874,Wunderground v.1.15,2013-05-15 20:55:00,
2013-05-15 16:00:00,83.3,70.3,29.84,East,89,3.0,3.0,65,0.00,,,0.38,279,Wunderground v.1.15,2013-05-15 21:00:00,
2013-05-15 16:05:00,82.9,69.9,29.84,WNW,292,3.0,3.0,65,0.00,,,0.38,777,Wunderground v.1.15,2013-05-15 21:05:00,
2013-05-15 16:15:00,83.0,70.0,29.83,West,279,3.0,4.0,65,0.00,,,0.38,336,Wunderground v.1.15,2013-05-15 21:15:00,
2013-05-15 16:20:00,83.2,70.2,29.83,East,83,3.0,3.0,65,0.00,,,0.38,765,Wunderground v.1.15,2013-05-15 21:20:00,
2013-05-15 16:30:00,83.4,69.9,29.82,NW,322,3.0,4.0,64,0.00,,,0.38,780,Wunderground v.1.15,2013-05-15 21:30:00,
2013-05-15 16:35:00,83.3,69.4,29.82,NE,54,3.0,4.0,63,0.00,,,0.38,229,Wunderground v.1.15,2013-05-15 21:35:00,
2013-05-15 16:40:00,83.4,70.4,29.81,NNE,30,4.0,4.0,65,0.00,,,0.38,626,Wunderground v.1.15,2013-05-15 21:40:00,
2013-05-15 16:50:00,84.5,69.6,29.81,ENE,57,3.0,3.0,61,0.00,,,0.38,603,Wunderground v.1.15,2013-05-15 21:50:00,
2013-05-15 17:00:00,84.9,69.5,29.80,ENE,63,3.0,4.0,60,0.00,,,0.38,596,Wunderground v.1.15,2013-05-15 22:00:00,
2013-05-15 17:05:00,84.6,69.2,29.81,SSE,150,4.0,5.0,60,0.00,,,0.38,563,Wunderground v.1.15,2013-05-15 22:05:00,
2013-05-15 17:10:00,84.1,69.7,29.80,SSW,205,4.0,4.0,62,0.00,,,0.38,146,Wunderground v.1.15,2013-05-15 22:10:00,
2013-05-15 17:15:00,83.6,69.2,29.80,ENE,67,3.0,7.0,62,0.00,,,0.38,141,Wunderground v.1.15,2013-05-15 22:15:00,
2013-05-15 17:20:00,83.8,69.9,29.80,NNW,344,3.0,3.0,63,0.00,,,0.38,512,Wunderground v.1.15,2013-05-15 22:20:00,
2013-05-15 17:25:00,83.5,69.6,29.80,WSW,250,4.0,4.0,63,0.00,,,0.38,496,Wunderground v.1.15,2013-05-15 22:25:00,
2013-05-15 17:30:00,82.9,69.9,29.80,SE,136,4.0,5.0,65,0.00,,,0.38,420,Wunderground v.1.15,2013-05-15 22:30:00,
2013-05-15 17:35:00,83.0,70.0,29.80,West,259,4.0,7.0,65,0.00,,,0.38,459,Wunderground v.1.15,2013-05-15 22:35:00,
2013-05-15 17:45:00,83.0,69.6,29.80,WSW,248,4.0,5.0,64,0.00,,,0.38,385,Wunderground v.1.15,2013-05-15 22:45:00,
2013-05-15 17:50:00,83.0,69.1,29.80,West,277,4.0,4.0,63,0.00,,,0.38,418,Wunderground v.1.15,2013-05-15 22:50:00,
2013-05-15 18:00:00,83.0,70.0,29.80,East,86,3.0,6.0,65,0.00,,,0.38,127,Wunderground v.1.15,2013-05-15 23:00:00,
2013-05-15 18:10:00,81.4,69.4,29.80,NNW,329,3.0,3.0,67,0.00,,,0.38,79,Wunderground v.1.15,2013-05-15 23:10:00,
2013-05-15 18:15:00,81.3,69.3,29.79,SE,146,3.0,3.0,67,0.00,,,0.38,218,Wunderground v.1.15,2013-05-15 23:15:00,
2013-05-15 18:20:00,81.1,69.5,29.79,SE,144,3.0,3.0,68,0.00,,,0.38,72,Wunderground v.1.15,2013-05-15 23:20:00,
2013-05-15 18:25:00,80.9,69.3,29.79,WSW,242,3.0,6.0,68,0.00,,,0.38,56,Wunderground v.1.15,2013-05-15 23:25:00,
2013-05-15 18:35:00,80.4,69.7,29.78,WSW,252,3.0,7.0,70,0.00,,,0.38,83,Wunderground v.1.15,2013-05-15 23:35:00,
2013-05-15 18:40:00,80.3,70.0,29.78,South,169,4.0,4.0,71,0.00,,,0.38,69,Wunderground v.1.15,2013-05-15 23:40:00,
2013-05-15 18:45:00,80.2,69.9,29.78,SSE,147,4.0,4.0,71,0.00,,,0.38,65,Wunderground v.1.15,2013-05-15 23:45:00,
2013-05-15 18:50:00,80.1,70.3,29.78,South,174,2.0,2.0,72,0.00,,,0.38,60,Wunderground v.1.15,2013-05-15 23:50:00,
2013-05-15 19:10:00,79.6,70.2,29.76,ENE,70,3.0,4.0,73,0.00,,,0.38,46,Wunderground v.1.15,2013-05-16 00:10:00,
2013-05-15 19:15:00,79.4,70.0,29.77,SSE,155,3.0,8.0,73,0.00,,,0.38,42,Wunderground v.1.15,2013-05-16 00:15:00,
2013-05-15 19:20:00,79.1,70.1,29.77,South,176,4.0,4.0,74,0.00,,,0.38,39,Wunderground v.1.15,2013-05-16 00:20:00,
2013-05-15 19:25:00,78.8,69.8,29.77,East,96,4.0,4.0,74,0.00,,,0.38,37,Wunderground v.1.15,2013-05-16 00:25:00,
2013-05-15 19:30:00,78.5,69.9,29.77,ENE,74,4.0,4.0,75,0.00,,,0.38,37,Wunderground v.1.15,2013-05-16 00:30:00,
2013-05-15 19:35:00,78.3,69.7,29.77,SW,222,3.0,4.0,75,0.00,,,0.38,30,Wunderground v.1.15,2013-05-16 00:35:00,
2013-05-15 19:45:00,77.9,69.7,29.77,SSW,213,2.0,7.0,76,0.00,,,0.38,26,Wunderground v.1.15,2013-05-16 00:45:00,
2013-05-15 19:50:00,77.7,69.9,29.78,SE,146,3.0,3.0,77,0.00,,,0.38,23,Wunderground v.1.15,2013-05-16 00:50:00,
2013-05-15 19:55:00,77.4,69.6,29.78,ESE,121,3.0,4.0,77,0.00,,,0.38,19,Wunderground v.1.15,2013-05-16 00:55:00,
2013-05-15 20:00:00,77.2,69.4,29.78,WNW,298,3.0,3.0,77,0.00,,,0.38,14,Wunderground v.1.15,2013-05-16 01:00:00,
2013-05-15 20:05:00,77.1,69.7,29.78,ESE,111,3.0,3.0,78,0.00,,,0.38,12,Wunderground v.1.15,2013-05-16 01:05:00,
2013-05-15 20:10:00,76.9,69.5,29.78,ESE,114,3.0,3.0,78,0.00,,,0.38,7,Wunderground v.1.15,2013-05-16 01:10:00,
2013-05-15 20:20:00,76.4,69.8,29.78,East,86,2.0,2.0,80,0.00,,,0.38,0,Wunderground v.1.15,2013-05-16 01:20:00,
2013-05-15 20:25:00,76.2,69.6,29.78,ENE,71,2.0,3.0,80,0.00,,,0.38,0,Wunderground v.1.15,2013-05-16 01:25:00,
2013-05-15 20:30:00,76.1,69.5,29.79,SSW,213,2.0,3.0,80,0.00,,,0.38,0,Wunderground v.1.15,2013-05-16 01:30:00,
2013-05-15 20:40:00,75.9,69.6,29.80,NE,46,2.0,2.0,81,0.00,,,0.38,0,Wunderground v.1.15,2013-05-16 01:40:00,
2013-05-15 20:45:00,75.8,69.6,29.80,South,170,2.0,2.0,81,0.00,,,0.38,0,Wunderground v.1.15,2013-05-16 01:45:00,
2013-05-15 20:55:00,75.6,69.4,29.80,SE,136,2.0,6.0,81,0.00,,,0.38,0,Wunderground v.1.15,2013-05-16 01:55:00,
2013-05-15 21:00:00,75.5,69.6,29.80,West,265,2.0,2.0,82,0.00,,,0.38,0,Wunderground v.1.15,2013-05-16 02:00:00,
2013-05-15 21:05:00,75.3,69.4,29.80,South,178,2.0,4.0,82,0.00,,,0.38,0,Wunderground v.1.15,2013-05-16 02:05:00,
2013-05-15 21:10:00,75.2,69.3,29.81,SSE,161,2.0,3.0,82,0.00,,,0.38,0,Wunderground v.1.15,2013-05-16 02:10:00,
2013-05-15 21:15:00,75.1,69.2,29.81,ESE,116,3.0,3.0,82,0.00,,,0.38,0,Wunderground v.1.15,2013-05-16 02:15:00,
2013-05-15 21:30:00,74.8,69.3,29.80,SW,227,2.0,4.0,83,0.00,,,0.38,0,Wunderground v.1.15,2013-05-16 02:30:00,
2013-05-15 21:35:00,74.6,69.4,29.80,WNW,290,2.0,4.0,84,0.00,,,0.38,0,Wunderground v.1.15,2013-05-16 02:35:00,
2013-05-15 21:40:00,74.5,69.3,29.80,SW,229,2.0,2.0,84,0.00,,,0.38,0,Wunderground v.1.15,2013-05-16 02:40:00,
2013-05-15 21:45:00,74.4,69.2,29.80,SE,138,3.0,3.0,84,0.00,,,0.38,0,Wunderground v.1.15,2013-05-16 02:45:00,
2013-05-15 21:50:00,74.3,69.1,29.80,NE,46,2.0,2.0,84,0.00,,,0.38,0,Wunderground v.1.15,2013-05-16 02:50:00,
2013-05-15 21:55:00,74.2,69.1,29.80,South,178,2.0,2.0,84,0.00,,,0.38,0,Wunderground v.1.15,2013-05-16 02:55:00,
2013-05-15 22:05:00,74.1,69.3,29.80,SE,145,2.0,5.0,85,0.00,,,0.38,0,Wunderground v.1.15,2013-05-16 03:05:00,
2013-05-15 22:10:00,74.1,69.3,29.80,ENE,63,2.0,2.0,85,0.00,,,0.38,0,Wunderground v.1.15,2013-05-16 03:10:00,
2013-05-15 22:15:00,74.1,69.3,29.80,ENE,58,2.0,4.0,85,0.00,,,0.38,0,Wunderground v.1.15,2013-05-16 03:15:00,
2013-05-15 22:25:00,74.0,69.2,29.79,WNW,297,2.0,3.0,85,0.00,,,0.38,0,Wunderground v.1.15,2013-05-16 03:25:00,
2013-05-15 22:30:00,73.9,69.4,29.79,ENE,67,3.0,3.0,86,0.00,,,0.38,0,Wunderground v.1.15,2013-05-16 03:30:00,
2013-05-15 22:40:00,73.9,69.4,29.79,ESE,123,3.0,3.0,86,0.00,,,0.38,0,Wunderground v.1.15,2013-05-16 03:40:00,
2013-05-15 22:45:00,73.8,69.3,29.79,NE,34,3.0,3.0,86,0.00,,,0.38,0,Wunderground v.1.15,2013-05-16 03:45:00,
2013-05-15 22:50:00,73.7,69.2,29.79,West,265,2.0,7.0,86,0.00,,,0.38,0,Wunderground v.1.15,2013-05-16 03:50:00,
2013-05-15 22:55:00,73.7,69.2,29.79,SW,232,2.0,7.0,86,0.00,,,0.38,0,Wunderground v.1.15,2013-05-16 03:55:00,
2013-05-15 23:00:00,73.7,69.2,29.79,SW,215,2.0,3.0,86,0.00,,,0.38,0,Wunderground v.1.15,2013-05-16 04:00:00,
2013-05-15 23:05:00,73.6,69.2,29.78,East,97,1.0,3.0,86,0.00,,,0.38,0,Wunderground v.1.15,2013-05-16 04:05:00,
2013-05-15 23:10:00,73.6,69.2,29.78,WSW,248,2.0,2.0,86,0.00,,,0.38,0,Wunderground v.1.15,2013-05-16 04:10:00,
2013-05-15 23:15:00,73.6,69.2,29.79,NE,38,3.0,3.0,86,0.00,,,0.38,0,Wunderground v.1.15,2013-05-16 04:15:00,
2013-05-15 23:20:00,73.7,69.2,29.79,SSW,201,3.0,3.0,86,0.00,,,0.38,0,Wunderground v.1.15,2013-05-16 04:20:00,
2013-05-15 23:25:00,73.7,69.2,29.79,East,82,2.0,3.0,86,0.00,,,0.38,0,Wunderground v.1.15,2013-05-16 04:25:00,
2013-05-15 23:30:00,73.7,69.2,29.80,West,263,2.0,2.0,86,0.00,,,0.38,0,Wunderground v.1.15,2013-05-16 04:30:00,
2013-05-15 23:35:00,73.7,69.2,29.80,WSW,246,2.0,3.0,86,0.00,,,0.38,0,Wunderground v.1.15,2013-05-16 04:35:00,
2013-05-15 23:40:00,73.7,69.2,29.80,West,278,2.0,4.0,86,0.00,,,0.38,0,Wunderground v.1.15,2013-05-16 04:40:00,
2013-05-15 23:45:00,73.7,69.2,29.79,NE,51,3.0,4.0,86,0.00,,,0.38,0,Wunderground v.1.15,2013-05-16 04:45:00,
2013-05-15 23:55:00,73.5,69.1,29.80,WNW,290,2.0,3.0,86,0.00,,,0.38,0,Wunderground v.1.15,2013-05-16 04:55:00,